sensor_id;sensor_type;location;lat;lon;timestamp;P1;durP1;ratioP1;P2;durP2;ratioP2
6983;SDS011;3532;51.118;7.210;2022-08-25T00:00:40;5.37;;;2.73;;
6983;SDS011;3532;51.118;7.210;2022-08-25T00:03:06;3.23;;;2.30;;
6983;SDS011;3532;51.118;7.210;2022-08-25T00:05:33;4.83;;;2.67;;
6983;SDS011;3532;51.118;7.210;2022-08-25T00:07:59;3.33;;;2.57;;
6983;SDS011;3532;51.118;7.210;2022-08-25T00:10:25;5.07;;;3.07;;
6983;SDS011;3532;51.118;7.210;2022-08-25T00:12:50;3.10;;;2.83;;
6983;SDS011;3532;51.118;7.210;2022-08-25T00:15:16;3.67;;;2.80;;
6983;SDS011;3532;51.118;7.210;2022-08-25T00:17:41;4.90;;;2.80;;
6983;SDS011;3532;51.118;7.210;2022-08-25T00:20:07;3.30;;;2.60;;
6983;SDS011;3532;51.118;7.210;2022-08-25T00:22:33;5.30;;;2.73;;
6983;SDS011;3532;51.118;7.210;2022-08-25T00:24:59;4.37;;;2.83;;
6983;SDS011;3532;51.118;7.210;2022-08-25T00:27:24;3.40;;;2.80;;
6983;SDS011;3532;51.118;7.210;2022-08-25T00:29:50;3.13;;;2.90;;
6983;SDS011;3532;51.118;7.210;2022-08-25T00:32:15;4.40;;;2.67;;
6983;SDS011;3532;51.118;7.210;2022-08-25T00:34:42;3.07;;;2.63;;
6983;SDS011;3532;51.118;7.210;2022-08-25T00:37:07;3.10;;;2.77;;
6983;SDS011;3532;51.118;7.210;2022-08-25T00:39:36;2.77;;;2.57;;
6983;SDS011;3532;51.118;7.210;2022-08-25T00:42:02;3.20;;;2.83;;
6983;SDS011;3532;51.118;7.210;2022-08-25T00:44:29;4.00;;;2.80;;
6983;SDS011;3532;51.118;7.210;2022-08-25T00:46:56;4.90;;;2.83;;
6983;SDS011;3532;51.118;7.210;2022-08-25T00:49:25;3.97;;;2.80;;
6983;SDS011;3532;51.118;7.210;2022-08-25T00:52:00;3.60;;;2.77;;
6983;SDS011;3532;51.118;7.210;2022-08-25T00:54:28;3.40;;;2.93;;
6983;SDS011;3532;51.118;7.210;2022-08-25T00:56:57;3.20;;;2.77;;
6983;SDS011;3532;51.118;7.210;2022-08-25T00:59:23;3.40;;;2.77;;
6983;SDS011;3532;51.118;7.210;2022-08-25T01:01:50;3.67;;;3.10;;
6983;SDS011;3532;51.118;7.210;2022-08-25T01:04:17;6.03;;;2.97;;
6983;SDS011;3532;51.118;7.210;2022-08-25T01:06:43;3.10;;;2.53;;
6983;SDS011;3532;51.118;7.210;2022-08-25T01:09:10;6.80;;;3.10;;
6983;SDS011;3532;51.118;7.210;2022-08-25T01:11:37;4.63;;;3.43;;
6983;SDS011;3532;51.118;7.210;2022-08-25T01:14:03;4.27;;;3.07;;
6983;SDS011;3532;51.118;7.210;2022-08-25T01:16:31;3.07;;;2.87;;
6983;SDS011;3532;51.118;7.210;2022-08-25T01:19:01;5.83;;;3.40;;
6983;SDS011;3532;51.118;7.210;2022-08-25T01:21:28;5.13;;;2.87;;
6983;SDS011;3532;51.118;7.210;2022-08-25T01:23:56;3.67;;;3.30;;
6983;SDS011;3532;51.118;7.210;2022-08-25T01:26:24;3.60;;;3.30;;
6983;SDS011;3532;51.118;7.210;2022-08-25T01:28:52;5.23;;;2.90;;
6983;SDS011;3532;51.118;7.210;2022-08-25T01:31:36;3.30;;;3.00;;
6983;SDS011;3532;51.118;7.210;2022-08-25T01:34:02;3.30;;;2.97;;
6983;SDS011;3532;51.118;7.210;2022-08-25T01:36:28;3.40;;;3.10;;
6983;SDS011;3532;51.118;7.210;2022-08-25T01:38:54;3.90;;;2.93;;
6983;SDS011;3532;51.118;7.210;2022-08-25T01:41:24;5.63;;;2.97;;
6983;SDS011;3532;51.118;7.210;2022-08-25T01:43:55;3.40;;;3.10;;
6983;SDS011;3532;51.118;7.210;2022-08-25T01:46:20;4.47;;;4.03;;
6983;SDS011;3532;51.118;7.210;2022-08-25T01:48:46;4.27;;;3.30;;
6983;SDS011;3532;51.118;7.210;2022-08-25T01:51:13;5.57;;;3.00;;
6983;SDS011;3532;51.118;7.210;2022-08-25T01:53:39;3.43;;;3.13;;
6983;SDS011;3532;51.118;7.210;2022-08-25T01:56:08;3.80;;;3.40;;
6983;SDS011;3532;51.118;7.210;2022-08-25T01:58:36;4.73;;;3.07;;
6983;SDS011;3532;51.118;7.210;2022-08-25T02:01:06;3.67;;;3.27;;
6983;SDS011;3532;51.118;7.210;2022-08-25T02:03:35;3.43;;;3.13;;
6983;SDS011;3532;51.118;7.210;2022-08-25T02:06:02;4.50;;;3.17;;
6983;SDS011;3532;51.118;7.210;2022-08-25T02:08:28;3.47;;;3.17;;
6983;SDS011;3532;51.118;7.210;2022-08-25T02:10:54;3.80;;;3.23;;
6983;SDS011;3532;51.118;7.210;2022-08-25T02:13:19;3.77;;;3.43;;
6983;SDS011;3532;51.118;7.210;2022-08-25T02:15:46;3.20;;;2.90;;
6983;SDS011;3532;51.118;7.210;2022-08-25T02:18:13;4.40;;;3.30;;
6983;SDS011;3532;51.118;7.210;2022-08-25T02:20:39;3.50;;;3.20;;
6983;SDS011;3532;51.118;7.210;2022-08-25T02:23:04;3.40;;;3.10;;
6983;SDS011;3532;51.118;7.210;2022-08-25T02:25:30;4.27;;;3.47;;
6983;SDS011;3532;51.118;7.210;2022-08-25T02:27:56;5.37;;;3.53;;
6983;SDS011;3532;51.118;7.210;2022-08-25T02:30:22;4.17;;;3.20;;
6983;SDS011;3532;51.118;7.210;2022-08-25T02:32:48;4.60;;;3.40;;
6983;SDS011;3532;51.118;7.210;2022-08-25T02:35:13;4.03;;;3.30;;
6983;SDS011;3532;51.118;7.210;2022-08-25T02:37:38;5.77;;;3.30;;
6983;SDS011;3532;51.118;7.210;2022-08-25T02:40:04;4.40;;;3.60;;
6983;SDS011;3532;51.118;7.210;2022-08-25T02:42:30;6.23;;;3.30;;
6983;SDS011;3532;51.118;7.210;2022-08-25T02:44:56;4.87;;;3.67;;
6983;SDS011;3532;51.118;7.210;2022-08-25T02:47:21;8.87;;;3.80;;
6983;SDS011;3532;51.118;7.210;2022-08-25T02:49:47;3.43;;;3.13;;
6983;SDS011;3532;51.118;7.210;2022-08-25T02:52:12;4.97;;;3.60;;
6983;SDS011;3532;51.118;7.210;2022-08-25T02:54:38;3.70;;;3.40;;
6983;SDS011;3532;51.118;7.210;2022-08-25T02:57:03;4.63;;;3.33;;
6983;SDS011;3532;51.118;7.210;2022-08-25T02:59:29;4.17;;;3.77;;
6983;SDS011;3532;51.118;7.210;2022-08-25T03:01:54;4.00;;;3.57;;
6983;SDS011;3532;51.118;7.210;2022-08-25T03:04:19;4.00;;;3.60;;
6983;SDS011;3532;51.118;7.210;2022-08-25T03:06:45;3.67;;;3.20;;
6983;SDS011;3532;51.118;7.210;2022-08-25T03:09:11;4.20;;;3.87;;
6983;SDS011;3532;51.118;7.210;2022-08-25T03:11:36;3.87;;;3.43;;
6983;SDS011;3532;51.118;7.210;2022-08-25T03:14:02;3.83;;;3.43;;
6983;SDS011;3532;51.118;7.210;2022-08-25T03:16:29;3.93;;;3.60;;
6983;SDS011;3532;51.118;7.210;2022-08-25T03:18:55;5.23;;;4.23;;
6983;SDS011;3532;51.118;7.210;2022-08-25T03:21:21;4.77;;;4.30;;
6983;SDS011;3532;51.118;7.210;2022-08-25T03:23:46;4.03;;;3.63;;
6983;SDS011;3532;51.118;7.210;2022-08-25T03:26:12;6.43;;;3.97;;
6983;SDS011;3532;51.118;7.210;2022-08-25T03:28:56;4.43;;;3.70;;
6983;SDS011;3532;51.118;7.210;2022-08-25T03:31:22;4.37;;;3.97;;
6983;SDS011;3532;51.118;7.210;2022-08-25T03:33:49;6.77;;;3.60;;
6983;SDS011;3532;51.118;7.210;2022-08-25T03:36:14;4.17;;;3.53;;
6983;SDS011;3532;51.118;7.210;2022-08-25T03:38:40;4.50;;;3.93;;
6983;SDS011;3532;51.118;7.210;2022-08-25T03:41:13;5.30;;;4.40;;
6983;SDS011;3532;51.118;7.210;2022-08-25T03:43:44;4.93;;;4.10;;
6983;SDS011;3532;51.118;7.210;2022-08-25T03:46:15;5.87;;;4.37;;
6983;SDS011;3532;51.118;7.210;2022-08-25T03:48:45;4.87;;;4.23;;
6983;SDS011;3532;51.118;7.210;2022-08-25T03:51:10;4.73;;;4.30;;
6983;SDS011;3532;51.118;7.210;2022-08-25T03:53:36;5.67;;;4.40;;
6983;SDS011;3532;51.118;7.210;2022-08-25T03:56:01;5.00;;;4.50;;
6983;SDS011;3532;51.118;7.210;2022-08-25T03:58:26;5.40;;;4.40;;
6983;SDS011;3532;51.118;7.210;2022-08-25T04:00:52;4.57;;;4.17;;
6983;SDS011;3532;51.118;7.210;2022-08-25T04:03:17;5.33;;;4.57;;
6983;SDS011;3532;51.118;7.210;2022-08-25T04:05:43;5.10;;;4.03;;
6983;SDS011;3532;51.118;7.210;2022-08-25T04:08:08;4.50;;;4.10;;
6983;SDS011;3532;51.118;7.210;2022-08-25T04:10:35;4.27;;;3.97;;
6983;SDS011;3532;51.118;7.210;2022-08-25T04:13:00;8.33;;;4.33;;
6983;SDS011;3532;51.118;7.210;2022-08-25T04:15:26;5.27;;;4.17;;
6983;SDS011;3532;51.118;7.210;2022-08-25T04:17:51;5.57;;;4.50;;
6983;SDS011;3532;51.118;7.210;2022-08-25T04:20:16;5.23;;;4.30;;
6983;SDS011;3532;51.118;7.210;2022-08-25T04:22:42;4.83;;;4.40;;
6983;SDS011;3532;51.118;7.210;2022-08-25T04:25:08;11.20;;;5.40;;
6983;SDS011;3532;51.118;7.210;2022-08-25T04:27:34;6.27;;;4.50;;
6983;SDS011;3532;51.118;7.210;2022-08-25T04:29:59;5.20;;;4.57;;
6983;SDS011;3532;51.118;7.210;2022-08-25T04:32:25;4.10;;;3.80;;
6983;SDS011;3532;51.118;7.210;2022-08-25T04:34:50;4.57;;;3.63;;
6983;SDS011;3532;51.118;7.210;2022-08-25T04:37:15;6.03;;;4.60;;
6983;SDS011;3532;51.118;7.210;2022-08-25T04:39:41;4.80;;;4.30;;
6983;SDS011;3532;51.118;7.210;2022-08-25T04:42:06;4.83;;;4.43;;
6983;SDS011;3532;51.118;7.210;2022-08-25T04:44:31;5.67;;;4.87;;
6983;SDS011;3532;51.118;7.210;2022-08-25T04:46:59;4.50;;;4.10;;
6983;SDS011;3532;51.118;7.210;2022-08-25T04:49:25;4.73;;;4.20;;
6983;SDS011;3532;51.118;7.210;2022-08-25T04:51:50;4.43;;;4.03;;
6983;SDS011;3532;51.118;7.210;2022-08-25T04:54:16;5.27;;;4.53;;
6983;SDS011;3532;51.118;7.210;2022-08-25T04:56:45;4.63;;;4.23;;
6983;SDS011;3532;51.118;7.210;2022-08-25T04:59:12;5.63;;;4.40;;
6983;SDS011;3532;51.118;7.210;2022-08-25T05:01:38;5.67;;;4.30;;
6983;SDS011;3532;51.118;7.210;2022-08-25T05:04:06;6.27;;;4.73;;
6983;SDS011;3532;51.118;7.210;2022-08-25T05:06:33;5.50;;;4.97;;
6983;SDS011;3532;51.118;7.210;2022-08-25T05:08:59;5.03;;;4.60;;
6983;SDS011;3532;51.118;7.210;2022-08-25T05:11:25;5.93;;;4.67;;
6983;SDS011;3532;51.118;7.210;2022-08-25T05:13:52;6.03;;;5.00;;
6983;SDS011;3532;51.118;7.210;2022-08-25T05:16:19;5.20;;;4.63;;
6983;SDS011;3532;51.118;7.210;2022-08-25T05:18:46;5.80;;;5.20;;
6983;SDS011;3532;51.118;7.210;2022-08-25T05:21:13;6.07;;;5.23;;
6983;SDS011;3532;51.118;7.210;2022-08-25T05:23:39;7.43;;;6.43;;
6983;SDS011;3532;51.118;7.210;2022-08-25T05:26:08;8.47;;;7.60;;
6983;SDS011;3532;51.118;7.210;2022-08-25T05:28:35;9.20;;;5.73;;
6983;SDS011;3532;51.118;7.210;2022-08-25T05:31:02;8.57;;;7.20;;
6983;SDS011;3532;51.118;7.210;2022-08-25T05:33:30;6.50;;;5.90;;
6983;SDS011;3532;51.118;7.210;2022-08-25T05:35:55;5.80;;;5.30;;
6983;SDS011;3532;51.118;7.210;2022-08-25T05:38:21;7.17;;;5.17;;
6983;SDS011;3532;51.118;7.210;2022-08-25T05:40:47;5.30;;;4.80;;
6983;SDS011;3532;51.118;7.210;2022-08-25T05:43:16;5.43;;;4.93;;
6983;SDS011;3532;51.118;7.210;2022-08-25T05:45:41;5.63;;;5.03;;
6983;SDS011;3532;51.118;7.210;2022-08-25T05:48:07;5.00;;;4.60;;
6983;SDS011;3532;51.118;7.210;2022-08-25T05:50:32;5.47;;;4.83;;
6983;SDS011;3532;51.118;7.210;2022-08-25T05:52:58;4.90;;;4.37;;
6983;SDS011;3532;51.118;7.210;2022-08-25T05:55:23;5.37;;;4.87;;
6983;SDS011;3532;51.118;7.210;2022-08-25T05:57:48;4.60;;;4.23;;
6983;SDS011;3532;51.118;7.210;2022-08-25T06:00:14;5.60;;;5.03;;
6983;SDS011;3532;51.118;7.210;2022-08-25T06:02:41;5.27;;;4.73;;
6983;SDS011;3532;51.118;7.210;2022-08-25T06:05:10;5.47;;;4.97;;
6983;SDS011;3532;51.118;7.210;2022-08-25T06:07:37;6.50;;;5.03;;
6983;SDS011;3532;51.118;7.210;2022-08-25T06:10:04;4.77;;;4.23;;
6983;SDS011;3532;51.118;7.210;2022-08-25T06:12:31;5.57;;;5.07;;
6983;SDS011;3532;51.118;7.210;2022-08-25T06:14:59;5.43;;;4.80;;
6983;SDS011;3532;51.118;7.210;2022-08-25T06:17:25;5.43;;;4.93;;
6983;SDS011;3532;51.118;7.210;2022-08-25T06:19:51;5.70;;;5.07;;
6983;SDS011;3532;51.118;7.210;2022-08-25T06:22:17;5.00;;;4.60;;
6983;SDS011;3532;51.118;7.210;2022-08-25T06:24:42;4.97;;;4.33;;
6983;SDS011;3532;51.118;7.210;2022-08-25T06:27:08;5.47;;;4.97;;
6983;SDS011;3532;51.118;7.210;2022-08-25T06:29:33;5.13;;;4.73;;
6983;SDS011;3532;51.118;7.210;2022-08-25T06:31:58;5.00;;;4.60;;
6983;SDS011;3532;51.118;7.210;2022-08-25T06:34:24;6.53;;;5.10;;
6983;SDS011;3532;51.118;7.210;2022-08-25T06:36:49;6.13;;;4.87;;
6983;SDS011;3532;51.118;7.210;2022-08-25T06:39:14;6.50;;;4.80;;
6983;SDS011;3532;51.118;7.210;2022-08-25T06:41:40;5.37;;;4.90;;
6983;SDS011;3532;51.118;7.210;2022-08-25T06:44:06;8.77;;;5.60;;
6983;SDS011;3532;51.118;7.210;2022-08-25T06:46:31;5.80;;;5.37;;
6983;SDS011;3532;51.118;7.210;2022-08-25T06:48:56;5.77;;;5.17;;
6983;SDS011;3532;51.118;7.210;2022-08-25T06:51:22;5.47;;;5.03;;
6983;SDS011;3532;51.118;7.210;2022-08-25T06:53:50;5.73;;;5.13;;
6983;SDS011;3532;51.118;7.210;2022-08-25T06:56:17;5.90;;;5.40;;
6983;SDS011;3532;51.118;7.210;2022-08-25T06:58:43;7.30;;;5.30;;
6983;SDS011;3532;51.118;7.210;2022-08-25T07:01:19;5.53;;;4.77;;
6983;SDS011;3532;51.118;7.210;2022-08-25T07:03:49;5.77;;;5.10;;
6983;SDS011;3532;51.118;7.210;2022-08-25T07:06:15;6.10;;;5.50;;
6983;SDS011;3532;51.118;7.210;2022-08-25T07:08:42;5.97;;;5.47;;
6983;SDS011;3532;51.118;7.210;2022-08-25T07:11:08;6.30;;;5.67;;
6983;SDS011;3532;51.118;7.210;2022-08-25T07:13:35;5.57;;;5.07;;
6983;SDS011;3532;51.118;7.210;2022-08-25T07:16:01;6.07;;;5.47;;
6983;SDS011;3532;51.118;7.210;2022-08-25T07:18:27;6.67;;;5.50;;
6983;SDS011;3532;51.118;7.210;2022-08-25T07:20:53;6.43;;;5.37;;
6983;SDS011;3532;51.118;7.210;2022-08-25T07:23:20;5.63;;;5.17;;
6983;SDS011;3532;51.118;7.210;2022-08-25T07:25:46;6.03;;;4.77;;
6983;SDS011;3532;51.118;7.210;2022-08-25T07:28:12;7.43;;;4.77;;
6983;SDS011;3532;51.118;7.210;2022-08-25T07:30:37;6.70;;;5.10;;
6983;SDS011;3532;51.118;7.210;2022-08-25T07:33:03;6.63;;;5.30;;
6983;SDS011;3532;51.118;7.210;2022-08-25T07:35:28;5.67;;;5.10;;
6983;SDS011;3532;51.118;7.210;2022-08-25T07:37:56;6.13;;;5.60;;
6983;SDS011;3532;51.118;7.210;2022-08-25T07:40:23;5.73;;;4.83;;
6983;SDS011;3532;51.118;7.210;2022-08-25T07:42:50;7.97;;;5.43;;
6983;SDS011;3532;51.118;7.210;2022-08-25T07:45:18;5.20;;;4.70;;
6983;SDS011;3532;51.118;7.210;2022-08-25T07:47:44;6.27;;;5.20;;
6983;SDS011;3532;51.118;7.210;2022-08-25T07:50:10;5.80;;;5.17;;
6983;SDS011;3532;51.118;7.210;2022-08-25T07:52:37;7.50;;;5.10;;
6983;SDS011;3532;51.118;7.210;2022-08-25T07:55:03;5.73;;;5.20;;
6983;SDS011;3532;51.118;7.210;2022-08-25T07:57:29;6.87;;;5.70;;
6983;SDS011;3532;51.118;7.210;2022-08-25T07:59:55;5.40;;;5.00;;
6983;SDS011;3532;51.118;7.210;2022-08-25T08:02:20;6.27;;;4.73;;
6983;SDS011;3532;51.118;7.210;2022-08-25T08:04:47;5.17;;;4.77;;
6983;SDS011;3532;51.118;7.210;2022-08-25T08:07:15;6.30;;;5.70;;
6983;SDS011;3532;51.118;7.210;2022-08-25T08:09:41;5.20;;;4.80;;
6983;SDS011;3532;51.118;7.210;2022-08-25T08:12:07;5.57;;;5.07;;
6983;SDS011;3532;51.118;7.210;2022-08-25T08:14:33;5.53;;;5.03;;
6983;SDS011;3532;51.118;7.210;2022-08-25T08:16:58;5.20;;;4.70;;
6983;SDS011;3532;51.118;7.210;2022-08-25T08:19:24;5.60;;;5.10;;
6983;SDS011;3532;51.118;7.210;2022-08-25T08:21:49;6.23;;;4.90;;
6983;SDS011;3532;51.118;7.210;2022-08-25T08:24:15;6.17;;;4.37;;
6983;SDS011;3532;51.118;7.210;2022-08-25T08:26:40;5.57;;;5.00;;
6983;SDS011;3532;51.118;7.210;2022-08-25T08:29:05;4.40;;;4.00;;
6983;SDS011;3532;51.118;7.210;2022-08-25T08:31:31;5.43;;;4.93;;
6983;SDS011;3532;51.118;7.210;2022-08-25T08:33:56;5.23;;;4.73;;
6983;SDS011;3532;51.118;7.210;2022-08-25T08:36:22;5.30;;;4.37;;
6983;SDS011;3532;51.118;7.210;2022-08-25T08:38:48;5.27;;;4.63;;
6983;SDS011;3532;51.118;7.210;2022-08-25T08:44:45;5.27;;;4.77;;
6983;SDS011;3532;51.118;7.210;2022-08-25T08:47:20;5.30;;;4.77;;
6983;SDS011;3532;51.118;7.210;2022-08-25T08:58:31;6.73;;;4.63;;
6983;SDS011;3532;51.118;7.210;2022-08-25T09:01:23;4.97;;;4.50;;
6983;SDS011;3532;51.118;7.210;2022-08-25T09:03:52;5.07;;;4.67;;
6983;SDS011;3532;51.118;7.210;2022-08-25T09:06:26;5.53;;;5.03;;
6983;SDS011;3532;51.118;7.210;2022-08-25T09:08:56;4.63;;;4.20;;
6983;SDS011;3532;51.118;7.210;2022-08-25T09:19:28;5.30;;;4.80;;
6983;SDS011;3532;51.118;7.210;2022-08-25T09:22:05;5.00;;;4.60;;
6983;SDS011;3532;51.118;7.210;2022-08-25T09:27:36;5.40;;;4.20;;
6983;SDS011;3532;51.118;7.210;2022-08-25T09:30:22;6.20;;;4.87;;
6983;SDS011;3532;51.118;7.210;2022-08-25T09:32:49;5.30;;;4.80;;
6983;SDS011;3532;51.118;7.210;2022-08-25T09:38:00;5.20;;;4.80;;
6983;SDS011;3532;51.118;7.210;2022-08-25T09:40:29;4.90;;;4.33;;
6983;SDS011;3532;51.118;7.210;2022-08-25T09:42:58;4.70;;;4.30;;
6983;SDS011;3532;51.118;7.210;2022-08-25T09:48:21;6.53;;;4.43;;
6983;SDS011;3532;51.118;7.210;2022-08-25T09:50:53;4.83;;;4.43;;
6983;SDS011;3532;51.118;7.210;2022-08-25T09:53:23;4.67;;;4.27;;
6983;SDS011;3532;51.118;7.210;2022-08-25T09:55:51;5.83;;;4.17;;
6983;SDS011;3532;51.118;7.210;2022-08-25T09:58:22;5.00;;;4.50;;
6983;SDS011;3532;51.118;7.210;2022-08-25T10:03:37;4.87;;;4.47;;
6983;SDS011;3532;51.118;7.210;2022-08-25T10:06:17;6.73;;;4.53;;
6983;SDS011;3532;51.118;7.210;2022-08-25T10:11:09;5.30;;;4.90;;
6983;SDS011;3532;51.118;7.210;2022-08-25T10:19:06;5.03;;;4.60;;
6983;SDS011;3532;51.118;7.210;2022-08-25T10:21:32;4.80;;;4.40;;
6983;SDS011;3532;51.118;7.210;2022-08-25T10:23:58;6.63;;;4.40;;
6983;SDS011;3532;51.118;7.210;2022-08-25T10:26:45;5.47;;;4.30;;
6983;SDS011;3532;51.118;7.210;2022-08-25T10:32:41;4.87;;;4.27;;
6983;SDS011;3532;51.118;7.210;2022-08-25T10:34:58;4.93;;;4.20;;
6983;SDS011;3532;51.118;7.210;2022-08-25T10:40:20;4.47;;;4.07;;
6983;SDS011;3532;51.118;7.210;2022-08-25T10:42:55;5.13;;;4.63;;
6983;SDS011;3532;51.118;7.210;2022-08-25T10:45:23;4.37;;;3.97;;
6983;SDS011;3532;51.118;7.210;2022-08-25T10:56:45;4.43;;;4.03;;
6983;SDS011;3532;51.118;7.210;2022-08-25T10:59:18;4.93;;;4.43;;
6983;SDS011;3532;51.118;7.210;2022-08-25T11:02:17;5.50;;;4.90;;
6983;SDS011;3532;51.118;7.210;2022-08-25T11:05:02;5.57;;;4.20;;
6983;SDS011;3532;51.118;7.210;2022-08-25T11:07:38;5.17;;;3.67;;
6983;SDS011;3532;51.118;7.210;2022-08-25T11:10:17;4.40;;;4.10;;
6983;SDS011;3532;51.118;7.210;2022-08-25T11:12:52;4.77;;;4.07;;
6983;SDS011;3532;51.118;7.210;2022-08-25T11:15:20;4.63;;;4.00;;
6983;SDS011;3532;51.118;7.210;2022-08-25T11:20:56;8.23;;;3.80;;
6983;SDS011;3532;51.118;7.210;2022-08-25T11:26:03;3.83;;;3.53;;
6983;SDS011;3532;51.118;7.210;2022-08-25T11:28:48;4.13;;;3.73;;
6983;SDS011;3532;51.118;7.210;2022-08-25T11:31:17;3.87;;;3.53;;
6983;SDS011;3532;51.118;7.210;2022-08-25T11:33:43;4.67;;;3.27;;
6983;SDS011;3532;51.118;7.210;2022-08-25T11:36:15;5.47;;;4.10;;
6983;SDS011;3532;51.118;7.210;2022-08-25T11:44:15;4.03;;;3.43;;
6983;SDS011;3532;51.118;7.210;2022-08-25T11:49:34;3.93;;;3.53;;
6983;SDS011;3532;51.118;7.210;2022-08-25T11:52:05;3.93;;;3.60;;
6983;SDS011;3532;51.118;7.210;2022-08-25T11:54:53;4.40;;;4.00;;
6983;SDS011;3532;51.118;7.210;2022-08-25T11:57:20;5.47;;;3.87;;
6983;SDS011;3532;51.118;7.210;2022-08-25T12:05:00;3.73;;;3.30;;
6983;SDS011;3532;51.118;7.210;2022-08-25T12:07:28;5.10;;;3.53;;
6983;SDS011;3532;51.118;7.210;2022-08-25T12:18:12;3.83;;;3.43;;
6983;SDS011;3532;51.118;7.210;2022-08-25T12:23:37;3.67;;;3.33;;
6983;SDS011;3532;51.118;7.210;2022-08-25T12:26:08;4.80;;;3.77;;
6983;SDS011;3532;51.118;7.210;2022-08-25T12:28:40;4.57;;;3.47;;
6983;SDS011;3532;51.118;7.210;2022-08-25T12:31:30;3.70;;;3.20;;
6983;SDS011;3532;51.118;7.210;2022-08-25T12:36:37;4.43;;;4.03;;
6983;SDS011;3532;51.118;7.210;2022-08-25T12:39:15;5.17;;;3.60;;
6983;SDS011;3532;51.118;7.210;2022-08-25T12:41:50;3.93;;;3.27;;
6983;SDS011;3532;51.118;7.210;2022-08-25T12:44:38;4.13;;;3.30;;
6983;SDS011;3532;51.118;7.210;2022-08-25T12:47:10;3.43;;;3.23;;
6983;SDS011;3532;51.118;7.210;2022-08-25T12:49:38;3.43;;;3.00;;
6983;SDS011;3532;51.118;7.210;2022-08-25T12:52:17;3.57;;;3.27;;
6983;SDS011;3532;51.118;7.210;2022-08-25T12:54:52;4.40;;;3.50;;
6983;SDS011;3532;51.118;7.210;2022-08-25T12:59:52;3.57;;;3.27;;
6983;SDS011;3532;51.118;7.210;2022-08-25T13:10:56;3.90;;;2.83;;
6983;SDS011;3532;51.118;7.210;2022-08-25T13:13:39;3.40;;;3.10;;
6983;SDS011;3532;51.118;7.210;2022-08-25T13:16:16;3.60;;;3.30;;
6983;SDS011;3532;51.118;7.210;2022-08-25T13:18:44;3.13;;;2.70;;
6983;SDS011;3532;51.118;7.210;2022-08-25T13:21:18;3.27;;;2.97;;
6983;SDS011;3532;51.118;7.210;2022-08-25T13:23:50;4.17;;;3.23;;
6983;SDS011;3532;51.118;7.210;2022-08-25T13:26:21;4.00;;;2.77;;
6983;SDS011;3532;51.118;7.210;2022-08-25T13:28:54;5.37;;;3.17;;
6983;SDS011;3532;51.118;7.210;2022-08-25T13:31:23;4.23;;;3.30;;
6983;SDS011;3532;51.118;7.210;2022-08-25T13:33:53;3.37;;;3.07;;
6983;SDS011;3532;51.118;7.210;2022-08-25T13:36:24;3.57;;;2.70;;
6983;SDS011;3532;51.118;7.210;2022-08-25T13:39:10;3.03;;;2.73;;
6983;SDS011;3532;51.118;7.210;2022-08-25T13:41:37;3.27;;;2.97;;
6983;SDS011;3532;51.118;7.210;2022-08-25T13:44:08;3.43;;;3.13;;
6983;SDS011;3532;51.118;7.210;2022-08-25T13:46:33;3.10;;;2.80;;
6983;SDS011;3532;51.118;7.210;2022-08-25T13:49:03;2.60;;;2.40;;
6983;SDS011;3532;51.118;7.210;2022-08-25T13:51:29;2.63;;;2.13;;
6983;SDS011;3532;51.118;7.210;2022-08-25T13:53:56;3.90;;;2.97;;
6983;SDS011;3532;51.118;7.210;2022-08-25T13:56:39;2.93;;;2.63;;
6983;SDS011;3532;51.118;7.210;2022-08-25T13:59:09;4.10;;;2.83;;
6983;SDS011;3532;51.118;7.210;2022-08-25T14:01:46;2.70;;;2.50;;
6983;SDS011;3532;51.118;7.210;2022-08-25T14:04:21;3.00;;;2.60;;
6983;SDS011;3532;51.118;7.210;2022-08-25T14:10:05;2.93;;;2.63;;
6983;SDS011;3532;51.118;7.210;2022-08-25T14:17:29;2.70;;;2.50;;
6983;SDS011;3532;51.118;7.210;2022-08-25T14:19:55;2.57;;;2.37;;
6983;SDS011;3532;51.118;7.210;2022-08-25T14:22:21;4.30;;;2.60;;
6983;SDS011;3532;51.118;7.210;2022-08-25T14:24:46;2.70;;;2.50;;
6983;SDS011;3532;51.118;7.210;2022-08-25T14:27:12;3.07;;;2.77;;
6983;SDS011;3532;51.118;7.210;2022-08-25T14:29:37;4.13;;;2.70;;
6983;SDS011;3532;51.118;7.210;2022-08-25T14:32:02;2.87;;;2.60;;
6983;SDS011;3532;51.118;7.210;2022-08-25T14:34:29;3.63;;;2.53;;
6983;SDS011;3532;51.118;7.210;2022-08-25T14:36:57;2.80;;;2.60;;
6983;SDS011;3532;51.118;7.210;2022-08-25T14:39:25;2.90;;;2.70;;
6983;SDS011;3532;51.118;7.210;2022-08-25T14:41:51;2.80;;;2.60;;
6983;SDS011;3532;51.118;7.210;2022-08-25T14:44:18;2.40;;;2.20;;
6983;SDS011;3532;51.118;7.210;2022-08-25T14:46:53;4.00;;;2.40;;
6983;SDS011;3532;51.118;7.210;2022-08-25T14:49:20;4.37;;;2.77;;
6983;SDS011;3532;51.118;7.210;2022-08-25T14:51:47;3.40;;;3.10;;
6983;SDS011;3532;51.118;7.210;2022-08-25T14:54:13;2.90;;;2.70;;
6983;SDS011;3532;51.118;7.210;2022-08-25T14:56:42;10.13;;;3.30;;
6983;SDS011;3532;51.118;7.210;2022-08-25T14:59:08;2.53;;;2.13;;
6983;SDS011;3532;51.118;7.210;2022-08-25T15:01:33;3.23;;;2.77;;
6983;SDS011;3532;51.118;7.210;2022-08-25T15:04:04;2.90;;;2.50;;
6983;SDS011;3532;51.118;7.210;2022-08-25T15:06:32;3.87;;;2.63;;
6983;SDS011;3532;51.118;7.210;2022-08-25T15:08:59;2.77;;;2.57;;
6983;SDS011;3532;51.118;7.210;2022-08-25T15:11:36;4.00;;;2.40;;
6983;SDS011;3532;51.118;7.210;2022-08-25T15:14:03;3.23;;;2.93;;
6983;SDS011;3532;51.118;7.210;2022-08-25T15:16:31;3.10;;;2.80;;
6983;SDS011;3532;51.118;7.210;2022-08-25T15:18:59;3.50;;;3.20;;
6983;SDS011;3532;51.118;7.210;2022-08-25T15:21:24;3.57;;;3.07;;
6983;SDS011;3532;51.118;7.210;2022-08-25T15:23:50;3.00;;;2.80;;
6983;SDS011;3532;51.118;7.210;2022-08-25T15:26:15;3.30;;;2.87;;
6983;SDS011;3532;51.118;7.210;2022-08-25T15:28:42;3.40;;;3.10;;
6983;SDS011;3532;51.118;7.210;2022-08-25T15:31:10;3.13;;;2.93;;
6983;SDS011;3532;51.118;7.210;2022-08-25T15:33:38;4.53;;;2.80;;
6983;SDS011;3532;51.118;7.210;2022-08-25T15:36:10;4.33;;;3.30;;
6983;SDS011;3532;51.118;7.210;2022-08-25T15:38:37;3.73;;;2.87;;
6983;SDS011;3532;51.118;7.210;2022-08-25T15:41:03;3.30;;;2.90;;
6983;SDS011;3532;51.118;7.210;2022-08-25T15:43:29;3.17;;;2.90;;
6983;SDS011;3532;51.118;7.210;2022-08-25T15:45:55;3.37;;;3.00;;
6983;SDS011;3532;51.118;7.210;2022-08-25T15:48:21;3.37;;;3.00;;
6983;SDS011;3532;51.118;7.210;2022-08-25T15:50:46;3.20;;;2.90;;
6983;SDS011;3532;51.118;7.210;2022-08-25T15:53:12;4.73;;;3.00;;
6983;SDS011;3532;51.118;7.210;2022-08-25T15:55:38;3.03;;;2.80;;
6983;SDS011;3532;51.118;7.210;2022-08-25T15:58:04;3.70;;;3.00;;
6983;SDS011;3532;51.118;7.210;2022-08-25T16:00:29;4.77;;;2.97;;
6983;SDS011;3532;51.118;7.210;2022-08-25T16:02:55;3.53;;;3.00;;
6983;SDS011;3532;51.118;7.210;2022-08-25T16:05:20;3.63;;;2.90;;
6983;SDS011;3532;51.118;7.210;2022-08-25T16:07:45;5.73;;;3.20;;
6983;SDS011;3532;51.118;7.210;2022-08-25T16:10:11;3.40;;;3.07;;
6983;SDS011;3532;51.118;7.210;2022-08-25T16:12:37;3.17;;;2.83;;
6983;SDS011;3532;51.118;7.210;2022-08-25T16:15:04;4.60;;;3.23;;
6983;SDS011;3532;51.118;7.210;2022-08-25T16:17:29;5.40;;;3.37;;
6983;SDS011;3532;51.118;7.210;2022-08-25T16:19:55;4.30;;;3.17;;
6983;SDS011;3532;51.118;7.210;2022-08-25T16:22:20;4.77;;;3.10;;
6983;SDS011;3532;51.118;7.210;2022-08-25T16:24:45;3.87;;;3.10;;
6983;SDS011;3532;51.118;7.210;2022-08-25T16:27:11;3.30;;;2.93;;
6983;SDS011;3532;51.118;7.210;2022-08-25T16:29:38;3.83;;;3.10;;
6983;SDS011;3532;51.118;7.210;2022-08-25T16:32:05;3.00;;;2.80;;
6983;SDS011;3532;51.118;7.210;2022-08-25T16:34:31;3.17;;;2.90;;
6983;SDS011;3532;51.118;7.210;2022-08-25T16:36:57;3.50;;;3.20;;
6983;SDS011;3532;51.118;7.210;2022-08-25T16:39:23;4.37;;;3.10;;
6983;SDS011;3532;51.118;7.210;2022-08-25T16:41:48;3.23;;;2.93;;
6983;SDS011;3532;51.118;7.210;2022-08-25T16:44:14;3.47;;;3.17;;
6983;SDS011;3532;51.118;7.210;2022-08-25T16:46:39;4.13;;;3.10;;
6983;SDS011;3532;51.118;7.210;2022-08-25T16:49:07;2.80;;;2.60;;
6983;SDS011;3532;51.118;7.210;2022-08-25T16:51:33;3.43;;;3.13;;
6983;SDS011;3532;51.118;7.210;2022-08-25T16:53:58;4.03;;;3.60;;
6983;SDS011;3532;51.118;7.210;2022-08-25T16:56:42;4.63;;;3.20;;
6983;SDS011;3532;51.118;7.210;2022-08-25T16:59:08;6.30;;;3.37;;
6983;SDS011;3532;51.118;7.210;2022-08-25T17:01:36;3.53;;;3.23;;
6983;SDS011;3532;51.118;7.210;2022-08-25T17:04:02;3.97;;;2.97;;
6983;SDS011;3532;51.118;7.210;2022-08-25T17:06:28;4.13;;;3.67;;